Latest Weather Observations for Eucla

IDW60801

Issued at 8:03 am WST Saturday 27 May 2017 (issued every 30 minutes, with the page automatically refreshed every 10 minutes)

About weather observations | Map of weather stations | Latest weather observations for WA | Other Formats
Station Details ID: 011003 Name: EUCLA Lat: -31.68 Lon: 128.90 Height: 93.1 m
Data from the previous 72 hours. | See also: Recent months at Eucla
Date/Time
WST
Temp
°C
App
Temp
°C
Dew
Point
°C
Rel
Hum
%
Delta-T
°C
Wind Press
QNH
hPa
Press
MSL
hPa
Rain since
9am
mm
Dir  Spd
km/h
Gust
km/h
Spd
kts
Gust
kts
27/08:00am 15.2 13.2 11.4 78 2.0 W 13 24 7 13 1019.7 1019.5 0.2
27/07:30am 13.8 11.7 11.1 84 1.4 WNW 13 19 7 10 1019.3 1019.1 0.2
27/07:00am 12.9 10.7 10.8 87 1.1 WNW 13 17 7 9 1019.1 1018.9 0.2
27/06:30am 11.3 8.8 9.7 90 0.8 WNW 13 19 7 10 1018.8 1018.7 0.2
27/06:00am 11.3 8.5 9.9 91 0.7 WNW 15 22 8 12 1018.3 1018.2 0.2
27/05:30am 11.2 8.8 10.0 92 0.6 WNW 13 19 7 10 1018.1 1018.0 0.0
27/05:00am 12.1 10.0 11.2 94 0.5 WNW 13 19 7 10 1017.9 1017.8 0.0
27/04:30am 12.0 9.9 11.1 94 0.5 WNW 13 17 7 9 1017.7 1017.6 0.0
27/04:00am 12.0 10.2 10.9 93 0.6 WNW 11 15 6 8 1017.5 1017.4 0.0
27/03:30am 12.0 10.2 10.9 93 0.6 WNW 11 13 6 7 1017.6 1017.5 0.0
27/03:00am 12.1 10.4 11.2 94 0.5 W 11 13 6 7 1017.6 1017.5 0.0
27/02:30am 12.0 10.7 11.1 94 0.5 WNW 9 11 5 6 1017.5 1017.4 0.0
27/02:00am 11.6 10.1 10.5 93 0.6 WNW 9 11 5 6 1017.5 1017.4 0.0
27/01:30am 11.8 10.3 10.5 92 0.7 WNW 9 11 5 6 1017.5 1017.4 0.0
27/01:00am 12.9 11.6 11.3 90 0.8 W 9 13 5 7 1017.6 1017.5 0.0
27/12:30am 13.8 12.5 12.5 92 0.7 W 11 13 6 7 1017.7 1017.6 0.0
27/12:00am 13.3 12.4 11.5 89 1.0 W 7 9 4 5 1017.6 1017.5 0.0
 
Date/Time
WST
Temp
°C
App
Temp
°C
Dew
Point
°C
Rel
Hum
%
Delta-T
°C
Wind Press
QNH
hPa
Press
MSL
hPa
Rain since
9am
mm
Dir  Spd
km/h
Gust
km/h
Spd
kts
Gust
kts
26/11:30pm 14.5 13.1 12.2 86 1.3 WSW 11 13 6 7 1017.8 1017.7 0.0
26/11:00pm 14.3 12.7 11.6 84 1.4 WSW 11 13 6 7 1017.8 1017.7 0.0
26/10:30pm 14.3 12.1 10.9 80 1.8 WSW 13 19 7 10 1017.8 1017.7 0.0
26/10:00pm 15.2 13.4 11.0 76 2.2 WSW 11 15 6 8 1017.8 1017.7 0.0
26/09:30pm 15.2 12.9 9.1 67 3.1 WSW 11 13 6 7 1017.8 1017.7 0.0
26/09:00pm 15.6 13.0 7.9 60 3.9 WSW 11 15 6 8 1017.8 1017.7 0.0
26/08:30pm 15.0 12.1 6.3 56 4.2 WSW 11 13 6 7 1017.8 1017.7 0.0
26/08:00pm 12.1 9.3 5.3 63 3.2 WSW 9 13 5 7 1017.5 1017.4 0.0
26/07:30pm 12.2 10.2 7.1 71 2.5 NE 7 7 4 4 1017.1 1017.0 0.0
26/07:00pm 13.1 11.1 7.1 67 2.9 NE 7 7 4 4 1016.9 1016.8 0.0
26/06:30pm 13.0 10.5 6.4 64 3.2 NE 9 9 5 5 1016.6 1016.5 0.0
26/06:00pm 13.1 10.4 5.8 61 3.4 ENE 9 9 5 5 1016.5 1016.4 0.0
26/05:30pm 13.3 11.0 5.9 61 3.5 ESE 7 7 4 4 1016.5 1016.4 0.0
26/05:00pm 14.2 12.1 6.8 61 3.6 ESE 7 9 4 5 1016.2 1016.1 0.0
26/04:30pm 15.7 13.8 6.7 55 4.4 SE 6 7 3 4 1016.0 1015.9 0.0
26/04:00pm 19.0 17.0 7.1 46 6.0 SSE 7 9 4 5 1015.8 1015.7 0.0
26/03:30pm 20.2 17.9 7.6 44 6.5 SSE 9 13 5 7 1015.7 1015.6 0.0
26/03:00pm 21.0 18.7 7.3 41 7.1 SSE 9 13 5 7 1015.6 1015.5 0.0
26/02:30pm 21.5 19.1 7.0 39 7.5 SE 9 13 5 7 1015.4 1015.3 0.0
26/02:00pm 21.7 19.0 7.5 40 7.4 SE 11 17 6 9 1015.6 1015.5 0.0
26/01:30pm 21.6 19.1 8.1 42 7.1 SSE 11 15 6 8 1015.6 1015.5 0.0
26/01:00pm 22.5 19.8 7.5 38 7.8 S 11 17 6 9 1015.8 1015.7 0.0
26/12:30pm 22.6 19.8 8.7 41 7.4 SSE 13 17 7 9 1016.0 1015.9 0.0
26/12:00pm 22.4 18.9 7.0 37 8.0 WSW 15 30 8 16 1016.5 1016.4 0.0
26/11:30am 23.6 19.6 3.0 26 10.0 WNW 13 22 7 12 1017.1 1017.0 0.0
26/11:00am 22.7 18.1 3.8 29 9.2 NW 17 20 9 11 1017.7 1017.6 0.0
26/10:30am 22.3 18.9 5.7 34 8.4 NW 13 19 7 10 1018.2 1018.1 0.0
26/10:00am 21.0 17.8 6.9 40 7.2 N 13 17 7 9 1018.7 1018.6 0.0
26/09:30am 19.3 16.6 8.9 51 5.5 N 13 17 7 9 1018.7 1018.6 0.0
26/09:00am 17.1 14.0 9.0 59 4.2 N 15 20 8 11 1018.9 1018.8 0.2
26/08:30am 15.0 12.1 9.6 70 2.8 NNE 15 19 8 10 1019.1 1018.9 0.2
26/08:00am 12.8 10.3 9.8 82 1.5 NNE 13 17 7 9 1019.3 1019.1 0.2
26/07:30am 11.2 8.7 9.6 90 0.8 NNE 13 19 7 10 1019.2 1019.0 0.2
26/07:00am 9.6 6.6 9.1 97 0.2 NNE 15 19 8 10 1019.1 1018.9 0.2
26/06:30am 8.2 5.2 7.8 97 0.2 NNE 13 15 7 8 1018.9 1018.8 0.2
26/06:00am 8.4 5.5 8.0 97 0.2 NNE 13 17 7 9 1018.9 1018.8 0.2
26/05:30am 8.4 5.5 8.0 97 0.2 NNE 13 17 7 9 1019.1 1018.9 0.2
26/05:00am 9.0 5.8 8.6 97 0.2 NNE 15 17 8 9 1019.2 1019.0 0.2
26/04:30am 10.4 7.6 9.9 97 0.3 NE 15 20 8 11 1019.2 1019.0 0.2
26/04:00am 11.0 8.3 10.5 97 0.3 NNE 15 22 8 12 1019.3 1019.1 0.2
26/03:30am 10.2 7.3 9.7 97 0.3 NNE 15 24 8 13 1019.3 1019.1 0.2
26/03:00am 10.0 7.4 9.5 97 0.2 NNE 13 17 7 9 1019.6 1019.4 0.2
26/02:30am 10.0 7.4 9.4 96 0.3 NNE 13 15 7 8 1019.8 1019.7 0.2
26/02:00am 10.9 8.6 10.3 96 0.3 NNE 13 17 7 9 1019.9 1019.8 0.2
26/01:30am 10.9 8.6 10.3 96 0.3 NNE 13 15 7 8 1019.9 1019.8 0.0
26/01:00am 11.3 9.0 10.5 95 0.4 NE 13 17 7 9 1020.1 1020.0 0.0
26/12:30am 11.7 9.5 10.9 95 0.4 NE 13 15 7 8 1020.2 1020.1 0.0
26/12:00am 11.8 10.0 11.0 95 0.4 NE 11 15 6 8 1020.6 1020.5 0.0
 
Date/Time
WST
Temp
°C
App
Temp
°C
Dew
Point
°C
Rel
Hum
%
Delta-T
°C
Wind Press
QNH
hPa
Press
MSL
hPa
Rain since
9am
mm
Dir  Spd
km/h
Gust
km/h
Spd
kts
Gust
kts
25/11:30pm 12.0 10.3 11.1 94 0.5 NE 11 15 6 8 1020.9 1020.8 0.0
25/11:00pm 12.0 10.2 10.9 93 0.6 NE 11 11 6 6 1021.1 1021.0 0.0
25/10:30pm 11.9 10.0 10.6 92 0.7 NE 11 11 6 6 1021.4 1021.3 0.0
25/10:00pm 12.3 10.5 10.9 91 0.7 ENE 11 15 6 8 1021.2 1021.1 0.0
25/09:30pm 12.5 10.3 10.9 90 0.8 ENE 13 15 7 8 1021.3 1021.2 0.0
25/09:00pm 12.8 11.0 11.0 89 0.9 ENE 11 13 6 7 1021.5 1021.4 0.0
25/08:30pm 13.5 11.9 11.4 87 1.1 ENE 11 13 6 7 1021.8 1021.7 0.0
25/08:00pm 14.2 12.6 11.5 84 1.4 E 11 13 6 7 1021.9 1021.8 0.0
25/07:30pm 14.6 13.0 11.7 83 1.6 E 11 13 6 7 1021.7 1021.6 0.0
25/07:00pm 15.1 13.6 11.9 81 1.7 ESE 11 13 6 7 1021.9 1021.8 0.0
25/06:30pm 15.2 13.7 12.0 81 1.7 ESE 11 13 6 7 1021.9 1021.8 0.0
25/06:00pm 15.3 13.9 12.1 81 1.7 ESE 11 13 6 7 1021.8 1021.7 0.0
25/05:30pm 15.3 14.2 12.1 81 1.7 ESE 9 13 5 7 1021.7 1021.6 0.0
25/05:00pm 15.8 14.8 12.2 79 2.0 ESE 9 11 5 6 1021.7 1021.6 0.0
25/04:30pm 16.4 15.4 12.4 77 2.2 SE 9 11 5 6 1021.5 1021.4 0.0
25/04:00pm 17.4 16.2 12.7 74 2.6 SE 11 15 6 8 1021.5 1021.4 0.0
25/03:30pm 18.0 16.2 12.2 69 3.2 SE 13 19 7 10 1021.5 1021.4 0.0
25/03:00pm 18.6 16.2 11.4 63 3.9 SE 15 19 8 10 1021.5 1021.4 0.0
25/02:30pm 19.0 16.9 11.1 60 4.3 SSE 13 19 7 10 1021.5 1021.4 0.0
25/02:00pm 19.6 17.1 11.1 58 4.6 SE 15 20 8 11 1021.6 1021.5 0.0
25/01:30pm 19.5 16.7 10.0 54 5.1 SE 15 20 8 11 1021.6 1021.5 0.0
25/01:00pm 20.6 16.7 7.2 42 6.9 ESE 17 24 9 13 1021.6 1021.5 0.0
25/12:30pm 20.7 17.2 7.0 41 7.0 ESE 15 24 8 13 1021.8 1021.7 0.0
25/12:00pm 21.0 17.0 6.5 39 7.3 ESE 17 22 9 12 1022.1 1022.0 0.0
25/11:30am 20.9 16.8 6.1 38 7.5 ESE 17 22 9 12 1022.6 1022.5 0.0
25/11:00am 20.8 16.9 5.2 36 7.7 SE 15 19 8 10 1023.0 1022.9 0.0
25/10:30am 20.8 17.2 5.2 36 7.7 SE 13 19 7 10 1023.4 1023.3 0.0
25/10:00am 20.6 17.2 3.8 33 8.0 ESE 11 17 6 9 1023.5 1023.4 0.0
25/09:30am 20.4 17.0 4.0 34 7.9 ESE 11 17 6 9 1023.4 1023.3 0.0
25/09:00am 20.2 17.4 3.4 33 8.0 E 7 11 4 6 1023.4 1023.3 0.0
25/08:30am 18.0 15.1 2.7 36 7.1 N 7 9 4 5 1023.2 1023.1 0.0
25/08:00am 14.6 11.7 2.5 44 5.4 N 7 9 4 5 1023.1 1023.0 0.0
25/07:30am 10.8 7.7 1.6 53 3.9 NNW 7 9 4 5 1022.9 1022.8 0.0
25/07:00am 6.7 2.6 -0.1 62 2.6 N 11 13 6 7 1022.5 1022.4 0.0
25/06:30am 4.6 0.5 -0.4 70 1.9 N 11 15 6 8 1022.2 1022.1 0.0
25/06:00am 5.7 1.6 -0.4 65 2.3 N 11 11 6 6 1021.9 1021.8 0.0
25/05:30am 5.8 2.0 -0.5 64 2.4 NW 9 11 5 6 1021.7 1021.6 0.0
25/05:00am 6.7 2.6 -0.3 61 2.7 NW 11 13 6 7 1021.5 1021.4 0.0
25/04:30am 7.9 3.8 -0.1 57 3.2 NW 11 11 6 6 1021.5 1021.4 0.0
25/04:00am 8.1 4.0 -0.1 56 3.2 NW 11 11 6 6 1021.3 1021.2 0.0
25/03:30am 8.5 4.9 0.5 57 3.2 NW 9 11 5 6 1021.3 1021.2 0.0
25/03:00am 7.2 3.6 0.6 63 2.6 NNW 9 11 5 6 1021.4 1021.3 0.0
25/02:30am 7.6 3.3 0.8 62 2.7 NNW 13 15 7 8 1021.3 1021.2 0.0
25/02:00am 6.8 3.3 1.1 67 2.3 N 9 11 5 6 1021.3 1021.2 0.0
25/01:30am 7.1 3.3 1.6 68 2.2 N 11 13 6 7 1021.3 1021.2 0.0
25/01:00am 7.2 3.5 2.1 70 2.1 N 11 11 6 6 1021.5 1021.4 0.0
25/12:30am 7.7 4.1 3.0 72 2.0 N 11 13 6 7 1021.2 1021.1 0.0
25/12:00am 8.4 5.0 4.0 74 1.9 N 11 13 6 7 1021.5 1021.4 0.0
 
Date/Time
WST
Temp
°C
App
Temp
°C
Dew
Point
°C
Rel
Hum
%
Delta-T
°C
Wind Press
QNH
hPa
Press
MSL
hPa
Rain since
9am
mm
Dir  Spd
km/h
Gust
km/h
Spd
kts
Gust
kts
24/11:30pm 8.6 5.3 4.8 77 1.7 N 11 13 6 7 1021.4 1021.3 0.0
24/11:00pm 8.8 5.7 5.5 80 1.5 N 11 13 6 7 1021.7 1021.6 0.0
24/10:30pm 9.4 6.0 5.8 78 1.7 N 13 13 7 7 1021.8 1021.7 0.0
24/10:00pm 10.6 7.7 6.4 75 2.0 NNE 11 13 6 7 1021.8 1021.7 0.0
24/09:30pm 11.1 8.2 6.6 74 2.1 NNE 11 15 6 8 1021.9 1021.8 0.0
24/09:00pm 11.6 8.4 6.9 73 2.2 NNE 13 15 7 8 1021.9 1021.8 0.0
24/08:30pm 11.9 9.1 7.0 72 2.4 NNE 11 13 6 7 1022.1 1022.0 0.0
24/08:00pm 12.8 9.8 7.5 70 2.6 NNE 13 15 7 8 1021.9 1021.8 0.0
24/07:30pm 13.7 10.8 8.3 70 2.7 NNE 13 17 7 9 1021.8 1021.7 0.0
24/07:00pm 14.1 11.5 9.3 73 2.5 NE 13 15 7 8 1021.7 1021.6 0.0
24/06:30pm 14.4 11.8 9.4 72 2.6 NE 13 17 7 9 1021.5 1021.4 0.0
24/06:00pm 14.5 12.3 9.5 72 2.6 NE 11 15 6 8 1021.3 1021.2 0.0
24/05:30pm 14.8 13.1 9.8 72 2.6 E 9 13 5 7 1021.0 1020.9 0.0
24/05:00pm 15.4 13.7 9.7 69 3.0 ENE 9 13 5 7 1020.7 1020.6 0.0
24/04:30pm 16.8 15.3 10.4 66 3.4 E 9 13 5 7 1020.5 1020.4 0.0
24/04:00pm 17.9 15.9 10.3 61 4.1 ESE 11 17 6 9 1020.2 1020.1 0.0
24/03:30pm 19.1 17.0 9.6 54 5.1 SE 11 15 6 8 1020.2 1020.1 0.0
24/03:00pm 20.1 18.1 8.8 48 5.9 SSE 9 15 5 8 1020.1 1020.0 0.0
24/02:30pm 22.7 18.8 3.3 28 9.4 WNW 13 22 7 12 1020.0 1019.9 0.0
24/02:00pm 23.2 19.6 3.2 27 9.7 NNW 11 19 6 10 1020.1 1020.0 0.0
24/01:30pm 23.0 19.0 3.0 27 9.6 NW 13 19 7 10 1020.2 1020.1 0.0
24/01:00pm 22.8 18.9 3.4 28 9.4 NW 13 24 7 13 1020.5 1020.4 0.0
24/12:30pm 22.8 18.5 3.4 28 9.4 N 15 22 8 12 1020.8 1020.7 0.0
24/12:00pm 22.5 18.3 3.6 29 9.1 NNW 15 26 8 14 1021.3 1021.2 0.0
24/11:30am 22.5 19.1 4.1 30 9.0 NNW 11 22 6 12 1021.8 1021.7 0.0
24/11:00am 21.9 18.1 4.0 31 8.7 NW 13 20 7 11 1022.4 1022.3 0.0
24/10:30am 21.7 18.0 4.3 32 8.5 NW 13 24 7 13 1022.9 1022.8 0.0
24/10:00am 21.1 17.6 5.5 36 7.7 NNW 13 17 7 9 1023.4 1023.3 0.0
24/09:30am 19.9 16.8 5.5 39 7.1 N 11 15 6 8 1023.7 1023.6 0.0
24/09:00am 18.9 15.9 6.1 43 6.3 NNW 11 15 6 8 1023.9 1023.8 0.0
24/08:30am 17.1 13.8 6.3 49 5.3 NNW 13 15 7 8 1023.8 1023.7 0.0

Other Formats:

Comma delimited format used in spreadsheet applications
http://www.bom.gov.au/fwo/IDW60801/IDW60801.94647.axf

JavaScript Object Notation format (JSON) in row-major order
http://www.bom.gov.au/fwo/IDW60801/IDW60801.94647.json